Time;durP1;ratioP1;P1;durP2;ratioP2;P2;SDS_P1;SDS_P2;PMS_P1;PMS_P2;Temp;Humidity;BMP_temperature;BMP_pressure;BME280_temperature;BME280_humidity;BME280_pressure;Samples;Min_cycle;Max_cycle;Signal;HPM_P1;HPM_P2
2023/12/21 00:00:16;;;;;;;0.57;0.30;;;;;;;6.39;100.00;98977.28;5064758;28;20198;-78
2023/12/21 00:02:43;;;;;;;1.10;0.40;;;;;;;6.21;100.00;98969.94;5074341;28;20269;-79
2023/12/21 00:05:10;;;;;;;0.50;0.40;;;;;;;6.26;100.00;98975.47;5093302;28;20199;-78
2023/12/21 00:07:37;;;;;;;0.60;0.40;;;;;;;6.28;100.00;98976.09;5093022;28;20207;-79
2023/12/21 00:10:05;;;;;;;1.57;0.47;;;;;;;6.28;100.00;98968.09;5092979;28;20258;-79
2023/12/21 00:12:31;;;;;;;0.63;0.50;;;;;;;6.28;100.00;98960.13;5094196;28;20203;-78
2023/12/21 00:14:58;;;;;;;1.27;0.43;;;;;;;6.29;100.00;98966.25;5092951;28;20193;-78
2023/12/21 00:17:25;;;;;;;0.57;0.20;;;;;;;6.32;100.00;98965.84;5094170;28;20192;-79
2023/12/21 00:19:52;;;;;;;1.90;0.50;;;;;;;6.15;100.00;98952.19;5084204;28;20220;-78
2023/12/21 00:22:23;;;;;;;0.70;0.30;;;;;;;6.20;100.00;98941.72;5094190;28;20295;-78
2023/12/21 00:24:50;;;;;;;0.23;0.23;;;;;;;6.31;100.00;98940.25;5094635;28;20673;-78
2023/12/21 00:27:16;;;;;;;1.00;0.47;;;;;;;6.21;100.00;98946.00;5093164;28;20651;-78
2023/12/21 00:29:43;;;;;;;0.20;0.20;;;;;;;6.19;100.00;98938.25;5099661;28;20273;-78
2023/12/21 00:32:10;;;;;;;1.30;0.50;;;;;;;6.18;100.00;98941.94;5092711;28;20184;-78
2023/12/21 00:34:39;;;;;;;0.70;0.40;;;;;;;6.19;100.00;98948.88;5100984;28;20193;-78
2023/12/21 00:37:06;;;;;;;1.63;0.47;;;;;;;6.10;100.00;98951.97;5093842;28;20184;-77
2023/12/21 00:39:33;;;;;;;0.77;0.30;;;;;;;6.24;100.00;98952.75;5093755;28;20180;-79
2023/12/21 00:42:00;;;;;;;1.37;0.43;;;;;;;6.32;100.00;98942.72;5093678;28;20186;-79
2023/12/21 00:44:26;;;;;;;0.50;0.40;;;;;;;6.47;100.00;98939.81;5094006;28;20181;-78
2023/12/21 00:46:53;;;;;;;1.10;0.43;;;;;;;6.33;100.00;98930.22;5083722;28;20187;-79
2023/12/21 00:49:20;;;;;;;0.93;0.40;;;;;;;6.36;100.00;98935.13;5093357;28;20285;-78
2023/12/21 00:51:47;;;;;;;0.47;0.30;;;;;;;6.23;100.00;98935.97;5107668;28;20709;-79
2023/12/21 00:54:14;;;;;;;0.43;0.40;;;;;;;6.28;100.00;98941.50;5094511;28;20187;-78
2023/12/21 00:56:40;;;;;;;1.27;0.40;;;;;;;6.29;100.00;98943.13;5092344;28;20233;-78
2023/12/21 00:59:07;;;;;;;0.60;0.30;;;;;;;6.18;100.00;98927.81;5075622;28;20608;-78
2023/12/21 01:01:34;;;;;;;0.30;0.23;;;;;;;6.22;100.00;98931.69;5086349;28;20189;-78
2023/12/21 01:04:01;;;;;;;0.83;0.30;;;;;;;6.24;100.00;98923.50;5090482;28;20192;-79
2023/12/21 01:06:28;;;;;;;0.30;0.30;;;;;;;6.11;100.00;98932.34;5093343;28;20189;-78
2023/12/21 01:08:54;;;;;;;0.30;0.30;;;;;;;6.08;100.00;98925.56;5093234;28;20197;-79
2023/12/21 01:11:21;;;;;;;0.43;0.30;;;;;;;6.00;100.00;98919.66;5093119;28;20212;-78
2023/12/21 01:13:48;;;;;;;0.57;0.40;;;;;;;6.00;100.00;98927.63;5101650;28;20188;-78
2023/12/21 01:16:16;;;;;;;0.73;0.30;;;;;;;5.94;100.00;98925.81;5101519;28;20191;-78
2023/12/21 01:18:43;;;;;;;1.13;0.30;;;;;;;5.80;100.00;98924.16;5093370;28;20193;-79
2023/12/21 01:21:10;;;;;;;1.03;0.40;;;;;;;5.81;100.00;98931.09;5093123;28;20258;-78
2023/12/21 01:23:37;;;;;;;0.90;0.30;;;;;;;5.74;100.00;98928.44;5091820;28;20212;-78
2023/12/21 01:26:04;;;;;;;0.70;0.33;;;;;;;5.80;100.00;98927.63;5092290;28;20188;-78
2023/12/21 01:28:31;;;;;;;0.30;0.30;;;;;;;5.90;100.00;98922.75;5084701;28;20204;-79
2023/12/21 01:30:58;;;;;;;0.50;0.40;;;;;;;5.71;100.00;98928.88;5094899;28;20207;-78
2023/12/21 01:33:25;;;;;;;0.63;0.30;;;;;;;5.58;100.00;98921.72;5092505;28;20200;-78
2023/12/21 01:35:52;;;;;;;0.40;0.30;;;;;;;5.60;100.00;98919.66;5090305;28;20188;-78
2023/12/21 01:38:18;;;;;;;0.30;0.30;;;;;;;5.49;100.00;98920.28;5088595;28;20200;-78
2023/12/21 01:40:45;;;;;;;0.50;0.20;;;;;;;5.52;100.00;98924.38;5090517;28;20184;-78
2023/12/21 01:43:12;;;;;;;2.00;0.40;;;;;;;5.46;100.00;98923.34;5095793;28;20230;-78
2023/12/21 01:45:39;;;;;;;0.30;0.30;;;;;;;5.56;100.00;98912.31;5095955;28;20195;-78
2023/12/21 01:48:07;;;;;;;0.77;0.40;;;;;;;5.44;100.00;98908.63;5095946;28;20198;-78
2023/12/21 01:50:34;;;;;;;0.93;0.30;;;;;;;5.33;100.00;98912.72;5097151;28;20223;-78
2023/12/21 01:53:02;;;;;;;0.97;0.27;;;;;;;5.42;100.00;98914.13;5095617;28;20200;-78
2023/12/21 01:55:29;;;;;;;0.97;0.47;;;;;;;5.29;100.00;98912.31;5078782;28;20250;-78
2023/12/21 01:57:56;;;;;;;1.90;0.40;;;;;;;5.41;100.00;98922.34;5095595;28;20691;-78
2023/12/21 02:00:23;;;;;;;0.80;0.40;;;;;;;5.32;100.00;98917.19;5096927;28;20192;-79
2023/12/21 02:02:52;;;;;;;0.70;0.43;;;;;;;5.13;100.00;98915.31;5090758;28;20687;-78
2023/12/21 02:05:20;;;;;;;1.37;0.30;;;;;;;5.12;100.00;98907.59;5086003;28;20191;-79
2023/12/21 02:07:47;;;;;;;0.30;0.30;;;;;;;5.07;100.00;98910.03;5097024;28;20271;-78
2023/12/21 02:10:14;;;;;;;0.40;0.30;;;;;;;4.99;100.00;98913.69;5088141;28;20215;-78
2023/12/21 02:12:41;;;;;;;2.30;0.40;;;;;;;4.95;100.00;98919.56;5096607;28;20237;-78
2023/12/21 02:15:08;;;;;;;1.40;0.40;;;;;;;4.87;100.00;98912.63;5078556;28;20192;-78
2023/12/21 02:17:36;;;;;;;0.80;0.30;;;;;;;4.87;100.00;98912.63;5095421;28;20203;-78
2023/12/21 02:20:05;;;;;;;0.20;0.20;;;;;;;4.85;100.00;98910.16;5095331;28;20184;-78
2023/12/21 02:22:33;;;;;;;0.10;0.10;;;;;;;4.78;100.00;98908.53;5095262;28;20236;-79
2023/12/21 02:25:01;;;;;;;0.47;0.20;;;;;;;4.71;100.00;98905.06;5096475;28;20271;-78
2023/12/21 02:27:30;;;;;;;0.63;0.30;;;;;;;4.61;100.00;98905.41;5094984;28;20200;-79
2023/12/21 02:29:57;;;;;;;0.40;0.30;;;;;;;4.60;100.00;98902.97;5096245;28;20201;-78
2023/12/21 02:32:23;;;;;;;0.67;0.30;;;;;;;4.54;100.00;98909.03;5096562;28;20249;-78
2023/12/21 02:34:50;;;;;;;0.63;0.30;;;;;;;4.48;100.00;98908.00;5094849;28;20210;-78
2023/12/21 02:37:18;;;;;;;0.30;0.30;;;;;;;4.42;100.00;98890.25;5090604;28;20223;-79
2023/12/21 02:39:45;;;;;;;0.30;0.20;;;;;;;4.35;100.00;98892.84;5094885;28;20201;-79
2023/12/21 02:42:12;;;;;;;0.67;0.40;;;;;;;4.29;100.00;98890.19;5095902;28;20192;-78
2023/12/21 02:44:38;;;;;;;0.97;0.50;;;;;;;4.23;100.00;98889.13;5106682;28;20193;-78
2023/12/21 02:47:05;;;;;;;1.00;0.60;;;;;;;4.16;100.00;98887.47;5110212;28;20196;-78
2023/12/21 02:49:32;;;;;;;0.70;0.50;;;;;;;4.10;100.00;98885.59;5097190;28;20239;-79
2023/12/21 02:51:59;;;;;;;0.60;0.50;;;;;;;4.08;100.00;98875.19;5116234;28;20207;-78
2023/12/21 02:54:26;;;;;;;0.30;0.30;;;;;;;4.05;100.00;98867.66;5116285;28;20183;-78
2023/12/21 02:56:53;;;;;;;0.70;0.50;;;;;;;4.00;100.00;98870.06;5104934;28;20648;-78
2023/12/21 02:59:19;;;;;;;1.23;0.40;;;;;;;3.98;100.00;98872.06;5098047;28;20192;-79
2023/12/21 03:01:46;;;;;;;0.40;0.33;;;;;;;3.93;100.00;98855.94;5116252;28;20184;-78
2023/12/21 03:04:13;;;;;;;0.97;0.40;;;;;;;3.91;100.00;98855.34;5114891;28;20233;-78
2023/12/21 03:06:40;;;;;;;0.53;0.40;;;;;;;3.91;100.00;98853.50;5114873;28;20223;-79
2023/12/21 03:09:07;;;;;;;0.30;0.30;;;;;;;3.87;100.00;98851.44;5114650;28;20199;-78
2023/12/21 03:11:33;;;;;;;0.70;0.30;;;;;;;3.99;100.00;98844.56;5115845;28;20199;-78
2023/12/21 03:14:00;;;;;;;0.30;0.30;;;;;;;3.92;100.00;98849.00;5102365;28;20191;-79
2023/12/21 03:16:27;;;;;;;0.40;0.20;;;;;;;3.92;100.00;98838.41;5102329;28;20196;-78
2023/12/21 03:18:54;;;;;;;0.57;0.40;;;;;;;3.99;100.00;98832.13;5096509;28;20270;-79
2023/12/21 03:21:21;;;;;;;0.60;0.30;;;;;;;4.11;100.00;98829.72;5095296;28;20184;-78
2023/12/21 03:23:47;;;;;;;0.40;0.33;;;;;;;4.23;100.00;98825.50;5094124;28;20208;-79
2023/12/21 03:26:15;;;;;;;0.40;0.30;;;;;;;4.45;100.00;98823.53;5085526;28;20188;-78
2023/12/21 03:28:44;;;;;;;0.57;0.40;;;;;;;4.56;100.00;98808.88;5095355;28;20184;-78
2023/12/21 03:31:11;;;;;;;0.33;0.30;;;;;;;4.70;100.00;98803.41;5088327;28;20203;-78
2023/12/21 03:33:38;;;;;;;0.20;0.20;;;;;;;4.75;100.00;98800.13;5080289;28;20268;-78
2023/12/21 03:36:06;;;;;;;0.20;0.20;;;;;;;4.83;100.00;98784.00;5102800;28;20652;-78
2023/12/21 03:38:33;;;;;;;0.47;0.20;;;;;;;4.80;100.00;98779.94;5096296;28;20188;-78
2023/12/21 03:40:59;;;;;;;1.00;0.27;;;;;;;4.85;100.00;98771.38;5095111;28;20192;-78
2023/12/21 03:43:26;;;;;;;1.13;0.30;;;;;;;4.78;100.00;98763.38;5094854;28;20197;-78
2023/12/21 03:45:56;;;;;;;0.97;0.33;;;;;;;4.76;100.00;98756.63;5086657;28;20188;-78
2023/12/21 03:48:24;;;;;;;1.57;0.30;;;;;;;4.72;100.00;98753.56;5094433;28;20227;-79
2023/12/21 03:50:51;;;;;;;1.00;0.90;;;;;;;4.65;100.00;98752.78;5094657;28;20691;-78
2023/12/21 03:53:18;;;;;;;1.10;0.40;;;;;;;4.59;100.00;98750.91;5093119;28;20254;-78
2023/12/21 03:55:45;;;;;;;0.90;0.20;;;;;;;4.59;100.00;98742.94;5094567;28;20206;-78
2023/12/21 03:58:12;;;;;;;0.23;0.20;;;;;;;4.60;100.00;98743.78;5094589;28;20184;-78
2023/12/21 04:00:38;;;;;;;0.33;0.20;;;;;;;4.51;100.00;98752.94;5076545;28;20207;-78
2023/12/21 04:03:05;;;;;;;0.30;0.27;;;;;;;4.45;100.00;98736.00;5093041;28;20192;-78
2023/12/21 04:05:32;;;;;;;1.47;0.60;;;;;;;4.39;100.00;98719.06;5094668;28;20246;-79
2023/12/21 04:07:59;;;;;;;0.80;0.60;;;;;;;4.27;100.00;98719.84;5087309;28;20279;-78
2023/12/21 04:10:26;;;;;;;1.83;0.53;;;;;;;4.20;100.00;98717.19;5094563;28;20184;-79
2023/12/21 04:12:53;;;;;;;0.80;0.80;;;;;;;4.15;100.00;98709.03;5093460;28;20226;-78
2023/12/21 04:15:20;;;;;;;0.90;0.57;;;;;;;4.14;100.00;98701.28;5078517;28;20190;-78
2023/12/21 04:17:46;;;;;;;0.50;0.40;;;;;;;4.09;100.00;98698.41;5094222;28;20196;-78
2023/12/21 04:20:13;;;;;;;0.57;0.50;;;;;;;4.04;100.00;98690.25;5094786;28;20184;-79
2023/12/21 04:22:40;;;;;;;1.93;0.40;;;;;;;4.05;100.00;98694.53;5105344;27;20208;-78
2023/12/21 04:25:08;;;;;;;0.97;0.50;;;;;;;4.02;100.00;98674.53;5093694;28;20196;-78
2023/12/21 04:27:35;;;;;;;0.50;0.50;;;;;;;3.95;100.00;98684.31;5094084;28;20191;-78
2023/12/21 04:30:03;;;;;;;0.43;0.40;;;;;;;3.91;100.00;98681.25;5095342;28;20273;-78
2023/12/21 04:32:30;;;;;;;0.60;0.30;;;;;;;3.96;100.00;98673.53;5092737;28;20244;-78
2023/12/21 04:34:57;;;;;;;0.40;0.30;;;;;;;3.94;100.00;98678.19;5093740;28;20292;-78
2023/12/21 04:37:24;;;;;;;0.60;0.30;;;;;;;3.92;100.00;98679.38;5093897;28;20184;-79
2023/12/21 04:39:51;;;;;;;0.40;0.40;;;;;;;3.93;100.00;98686.31;5100740;28;20266;-79
2023/12/21 04:42:18;;;;;;;0.40;0.30;;;;;;;3.97;100.00;98677.78;5096656;28;20187;-78
2023/12/21 04:44:44;;;;;;;0.30;0.30;;;;;;;4.00;100.00;98681.88;5106649;28;20188;-78
2023/12/21 04:47:12;;;;;;;0.47;0.37;;;;;;;4.02;100.00;98679.00;5093673;28;20188;-78
2023/12/21 04:49:50;;;;;;;1.17;0.90;;;;;;;4.02;100.00;98668.41;5092452;28;20224;-79
2023/12/21 04:52:17;;;;;;;0.87;0.50;;;;;;;4.05;100.00;98657.41;5094303;28;20219;-78
2023/12/21 04:54:44;;;;;;;0.30;0.30;;;;;;;4.10;100.00;98655.81;5093479;28;20192;-78
2023/12/21 04:57:11;;;;;;;0.73;0.30;;;;;;;4.13;100.00;98639.47;5102131;28;20192;-79
2023/12/21 04:59:40;;;;;;;0.20;0.20;;;;;;;4.18;100.00;98633.56;5113930;28;20207;-78
2023/12/21 05:02:07;;;;;;;0.20;0.20;;;;;;;4.24;100.00;98630.13;5112871;28;20188;-78
2023/12/21 05:04:34;;;;;;;0.33;0.20;;;;;;;4.29;100.00;98631.13;5083604;28;20188;-78
2023/12/21 05:07:01;;;;;;;0.20;0.20;;;;;;;4.33;100.00;98623.59;5098813;28;20192;-79
2023/12/21 05:09:28;;;;;;;0.40;0.40;;;;;;;4.36;100.00;98624.00;5109721;28;20185;-78
2023/12/21 05:11:55;;;;;;;0.57;0.37;;;;;;;4.40;100.00;98611.97;5100159;28;20266;-79
2023/12/21 05:14:21;;;;;;;0.23;0.20;;;;;;;4.46;100.00;98612.16;5075207;28;20683;-78
2023/12/21 05:16:48;;;;;;;0.67;0.30;;;;;;;4.50;100.00;98602.78;5092028;28;20188;-78
2023/12/21 05:19:15;;;;;;;0.47;0.30;;;;;;;4.54;100.00;98602.16;5093180;28;20185;-78
2023/12/21 05:21:42;;;;;;;0.20;0.20;;;;;;;4.58;100.00;98592.75;5093383;28;20199;-78
2023/12/21 05:24:09;;;;;;;0.40;0.30;;;;;;;4.65;100.00;98585.63;5101383;28;20204;-78
2023/12/21 05:26:36;;;;;;;0.23;0.23;;;;;;;4.68;100.00;98587.03;5092980;28;20191;-78
2023/12/21 05:29:02;;;;;;;0.30;0.30;;;;;;;4.70;100.00;98569.91;5092969;28;20195;-78
2023/12/21 05:31:29;;;;;;;0.20;0.20;;;;;;;4.79;100.00;98570.47;5108707;28;20215;-79
2023/12/21 05:33:56;;;;;;;0.20;0.10;;;;;;;4.81;100.00;98565.75;5091929;28;20273;-78
2023/12/21 05:36:24;;;;;;;0.40;0.30;;;;;;;4.82;100.00;98570.88;5093074;28;20257;-78
2023/12/21 05:38:53;;;;;;;0.90;0.30;;;;;;;4.87;100.00;98570.25;5079152;28;20267;-78
2023/12/21 05:41:20;;;;;;;0.70;0.20;;;;;;;4.90;100.00;98558.41;5081999;28;20192;-78
2023/12/21 05:43:47;;;;;;;0.20;0.20;;;;;;;4.91;100.00;98552.88;5091586;28;20192;-78
2023/12/21 05:46:14;;;;;;;0.27;0.27;;;;;;;4.93;100.00;98545.53;5093044;28;20185;-78
2023/12/21 05:48:40;;;;;;;0.43;0.30;;;;;;;4.93;100.00;98542.88;5107937;28;20224;-78
2023/12/21 05:51:07;;;;;;;0.43;0.20;;;;;;;4.92;100.00;98549.19;5097281;28;20294;-78
2023/12/21 05:53:34;;;;;;;0.60;0.30;;;;;;;4.93;100.00;98550.84;5092827;28;20188;-78
2023/12/21 05:56:02;;;;;;;0.93;0.30;;;;;;;4.98;100.00;98540.41;5093060;28;20188;-78
2023/12/21 05:58:29;;;;;;;3.97;1.27;;;;;;;4.95;100.00;98543.47;5092878;28;20185;-78
2023/12/21 06:00:56;;;;;;;1.53;0.60;;;;;;;5.03;100.00;98545.09;5092849;28;20219;-79
2023/12/21 06:03:23;;;;;;;3.23;1.47;;;;;;;5.11;100.00;98543.00;5092743;28;20188;-78
2023/12/21 06:05:51;;;;;;;0.60;0.43;;;;;;;5.11;100.00;98544.84;5091721;28;20243;-78
2023/12/21 06:08:17;;;;;;;0.47;0.30;;;;;;;5.16;100.00;98543.19;5091486;28;20193;-79
2023/12/21 06:10:44;;;;;;;0.67;0.20;;;;;;;5.17;100.00;98542.16;5093041;28;20192;-79
2023/12/21 06:13:11;;;;;;;0.20;0.20;;;;;;;5.22;100.00;98542.34;5091482;28;20283;-78
2023/12/21 06:15:38;;;;;;;0.50;0.30;;;;;;;5.24;100.00;98548.25;5091266;28;20207;-78
2023/12/21 06:18:05;;;;;;;2.53;0.33;;;;;;;5.25;100.00;98544.59;5094852;28;20192;-78
2023/12/21 06:20:35;;;;;;;1.03;0.40;;;;;;;5.29;100.00;98547.63;5104849;28;20214;-78
2023/12/21 06:23:02;;;;;;;0.57;0.30;;;;;;;5.33;100.00;98546.97;5075906;28;20201;-78
2023/12/21 06:25:29;;;;;;;1.07;0.30;;;;;;;5.37;100.00;98531.44;5073382;28;20205;-78
2023/12/21 06:27:57;;;;;;;0.60;0.40;;;;;;;5.37;100.00;98543.88;5097197;28;20268;-79
2023/12/21 06:30:23;;;;;;;0.70;0.43;;;;;;;5.38;100.00;98535.72;5078357;28;20188;-78
2023/12/21 06:32:50;;;;;;;0.30;0.30;;;;;;;5.40;100.00;98546.97;5096304;28;20283;-79
2023/12/21 06:35:17;;;;;;;1.53;1.00;;;;;;;5.41;100.00;98534.50;5096567;28;20190;-79
2023/12/21 06:37:45;;;;;;;1.07;0.40;;;;;;;5.42;100.00;98538.75;5078161;28;20195;-79
2023/12/21 06:40:12;;;;;;;0.87;0.50;;;;;;;5.39;100.00;98528.56;5075841;28;20669;-80
2023/12/21 06:42:39;;;;;;;0.60;0.60;;;;;;;5.37;100.00;98530.59;5101425;28;20196;-80
2023/12/21 06:45:06;;;;;;;1.30;0.80;;;;;;;5.36;100.00;98521.84;5097795;28;20687;-80
2023/12/21 06:47:33;;;;;;;0.90;0.67;;;;;;;5.36;100.00;98531.66;5095519;28;20184;-79
2023/12/21 06:50:00;;;;;;;1.20;0.90;;;;;;;5.32;100.00;98528.59;5094790;28;20235;-78
2023/12/21 06:52:27;;;;;;;3.13;1.40;;;;;;;5.31;100.00;98519.84;5093507;28;20208;-78
2023/12/21 06:54:53;;;;;;;1.33;0.97;;;;;;;5.31;100.00;98522.50;5094549;28;20651;-78
2023/12/21 06:57:20;;;;;;;0.80;0.80;;;;;;;5.29;100.00;98521.88;5095566;28;20188;-78
2023/12/21 06:59:47;;;;;;;1.73;1.20;;;;;;;5.32;100.00;98517.97;5094480;28;20183;-78
2023/12/21 07:02:15;;;;;;;2.57;1.43;;;;;;;5.30;100.00;98514.72;5074600;28;20202;-79
2023/12/21 07:04:42;;;;;;;2.73;1.40;;;;;;;5.34;100.00;98521.25;5077413;28;20192;-79
2023/12/21 07:07:08;;;;;;;2.07;1.40;;;;;;;5.36;100.00;98521.03;5095626;28;20216;-79
2023/12/21 07:09:35;;;;;;;3.70;1.40;;;;;;;5.39;100.00;98524.06;5095661;28;20191;-79
2023/12/21 07:12:05;;;;;;;2.43;1.10;;;;;;;5.43;100.00;98527.94;5095412;28;20242;-79
2023/12/21 07:14:32;;;;;;;1.17;1.00;;;;;;;5.43;100.00;98516.50;5096059;28;20215;-79
2023/12/21 07:16:58;;;;;;;1.10;0.90;;;;;;;5.41;100.00;98521.22;5096294;28;20676;-78
2023/12/21 07:19:25;;;;;;;1.20;1.03;;;;;;;5.42;100.00;98528.13;5103455;28;20200;-78
2023/12/21 07:21:52;;;;;;;1.93;1.20;;;;;;;5.43;100.00;98521.81;5094680;28;20192;-79
2023/12/21 07:24:19;;;;;;;2.10;1.27;;;;;;;5.41;100.00;98505.28;5079775;28;20234;-80
2023/12/21 07:26:46;;;;;;;1.37;1.20;;;;;;;5.45;100.00;98494.00;5107670;28;20237;-79
2023/12/21 07:29:13;;;;;;;2.07;1.10;;;;;;;5.46;100.00;98473.56;5094254;28;20178;-78
2023/12/21 07:31:40;;;;;;;1.73;1.10;;;;;;;5.50;100.00;98488.88;5095238;28;20204;-79
2023/12/21 07:34:07;;;;;;;1.00;0.80;;;;;;;5.56;100.00;98485.34;5102350;28;20195;-79
2023/12/21 07:36:34;;;;;;;1.30;0.67;;;;;;;5.62;100.00;98488.97;5094987;28;20192;-79
2023/12/21 07:39:01;;;;;;;1.30;1.00;;;;;;;5.63;100.00;98470.19;5094106;28;20241;-79
2023/12/21 07:41:28;;;;;;;2.43;0.87;;;;;;;5.66;100.00;98492.84;5093713;28;20242;-78
2023/12/21 07:43:57;;;;;;;0.90;0.70;;;;;;;5.70;100.00;98460.28;5093943;28;20181;-78
2023/12/21 07:46:24;;;;;;;2.23;1.60;;;;;;;5.76;100.00;98467.41;5093823;28;20184;-79
2023/12/21 07:48:51;;;;;;;2.77;1.63;;;;;;;5.88;100.00;98467.53;5094884;28;20236;-79
2023/12/21 07:51:18;;;;;;;2.07;1.30;;;;;;;5.93;100.00;98469.53;5094916;28;20212;-78
2023/12/21 07:53:44;;;;;;;2.23;1.80;;;;;;;5.97;100.00;98452.16;5094891;28;20180;-79
2023/12/21 07:56:11;;;;;;;1.93;1.57;;;;;;;6.02;100.00;98473.56;5101956;28;20192;-79
2023/12/21 07:58:38;;;;;;;1.57;1.30;;;;;;;6.03;100.00;98456.56;5107214;28;20229;-79
2023/12/21 08:01:05;;;;;;;1.30;1.00;;;;;;;6.03;100.00;98462.69;5076525;28;20225;-79
2023/12/21 08:03:32;;;;;;;2.23;1.10;;;;;;;6.01;100.00;98450.69;5094680;28;20190;-79
2023/12/21 08:05:59;;;;;;;1.50;0.90;;;;;;;6.01;100.00;98451.50;5102636;28;20191;-79
2023/12/21 08:08:25;;;;;;;1.40;0.90;;;;;;;6.01;100.00;98440.03;5086071;28;20219;-78
2023/12/21 08:10:52;;;;;;;1.40;1.20;;;;;;;6.06;100.00;98450.84;5094783;28;20191;-79
2023/12/21 08:13:19;;;;;;;1.53;1.30;;;;;;;6.14;100.00;98451.38;5093024;28;20223;-79
2023/12/21 08:15:46;;;;;;;2.03;1.30;;;;;;;6.19;100.00;98456.84;5073009;28;20197;-78
2023/12/21 08:18:13;;;;;;;4.00;1.90;;;;;;;6.27;100.00;98470.88;5074429;28;20181;-79
2023/12/21 08:20:42;;;;;;;2.00;1.60;;;;;;;6.35;100.00;98466.06;5097102;28;20184;-79
2023/12/21 08:23:09;;;;;;;2.43;1.93;;;;;;;6.43;100.00;98471.13;5099064;28;20239;-78
2023/12/21 08:25:36;;;;;;;3.20;2.37;;;;;;;6.52;100.00;98461.81;5096359;28;20206;-79
2023/12/21 08:28:03;;;;;;;3.87;2.30;;;;;;;6.56;100.00;98470.97;5096267;28;20196;-79
2023/12/21 08:30:30;;;;;;;5.23;3.80;;;;;;;6.62;100.00;98466.63;5093005;28;20214;-78
2023/12/21 08:32:57;;;;;;;7.13;5.20;;;;;;;6.66;100.00;98465.13;5092696;28;20234;-79
2023/12/21 08:35:24;;;;;;;7.70;6.40;;;;;;;6.71;100.00;98467.94;5099852;28;20209;-79
2023/12/21 08:37:51;;;;;;;3.70;2.77;;;;;;;6.75;100.00;98463.81;5100404;28;20188;-78
2023/12/21 08:40:18;;;;;;;5.53;2.93;;;;;;;6.76;100.00;98462.75;5074340;28;20223;-79
2023/12/21 08:42:44;;;;;;;4.07;2.37;;;;;;;6.72;100.00;98458.91;5074926;28;20264;-79
2023/12/21 08:45:12;;;;;;;3.33;2.50;;;;;;;6.67;100.00;98450.78;5074585;28;20185;-80
2023/12/21 08:47:40;;;;;;;4.20;2.37;;;;;;;6.61;100.00;98441.03;5093719;28;20200;-79
2023/12/21 08:50:10;;;;;;;3.17;2.10;;;;;;;6.67;100.00;98445.47;5076966;28;20305;-80
2023/12/21 08:52:38;;;;;;;3.20;2.30;;;;;;;6.77;100.00;98420.97;5093831;28;20208;-80
2023/12/21 08:55:07;;;;;;;3.60;3.00;;;;;;;6.80;100.00;98415.22;5091367;28;20245;-80
2023/12/21 08:57:57;;;;;;;5.03;3.93;;;;;;;6.88;100.00;98398.91;5109735;28;20187;-80
2023/12/21 09:00:24;;;;;;;4.10;3.70;;;;;;;6.74;100.00;98386.81;5102421;28;20200;-80
2023/12/21 09:02:51;;;;;;;5.37;3.30;;;;;;;6.81;100.00;98383.03;5077025;28;20200;-80
2023/12/21 09:05:23;;;;;;;4.07;2.90;;;;;;;6.88;100.00;98389.09;5085387;28;20206;-80
2023/12/21 09:07:52;;;;;;;4.27;2.57;;;;;;;6.93;100.00;98378.56;5115111;28;20643;-80
2023/12/21 09:10:21;;;;;;;3.07;2.67;;;;;;;7.00;100.00;98371.28;5105511;28;20232;-80
2023/12/21 09:12:48;;;;;;;3.73;2.83;;;;;;;7.13;100.00;98369.47;5069878;28;20207;-80
2023/12/21 09:15:15;;;;;;;5.80;3.97;;;;;;;7.19;100.00;98353.38;5096165;28;20195;-80
2023/12/21 09:17:42;;;;;;;5.10;3.83;;;;;;;7.35;100.00;98358.06;5093598;28;20183;-79
2023/12/21 09:20:13;;;;;;;2.00;1.80;;;;;;;7.62;100.00;98349.63;5093404;28;20199;-79
2023/12/21 09:22:40;;;;;;;2.13;1.73;;;;;;;7.82;100.00;98342.09;5093590;28;20213;-79
2023/12/21 09:25:08;;;;;;;1.70;1.60;;;;;;;8.00;100.00;98346.47;5092849;28;20267;-79
2023/12/21 09:27:36;;;;;;;3.60;2.00;;;;;;;8.15;100.00;98330.78;5092655;28;20194;-79
2023/12/21 09:30:05;;;;;;;4.20;2.90;;;;;;;8.28;100.00;98306.50;5080872;28;20237;-79
2023/12/21 09:32:33;;;;;;;2.80;2.50;;;;;;;8.44;100.00;98308.47;5112100;28;20256;-79
2023/12/21 09:34:59;;;;;;;2.83;2.33;;;;;;;8.64;100.00;98310.69;5107420;28;20196;-79
2023/12/21 09:37:26;;;;;;;4.93;4.00;;;;;;;8.87;100.00;98291.09;5108821;28;20195;-79
2023/12/21 09:39:57;;;;;;;4.97;3.57;;;;;;;9.10;100.00;98288.25;5095858;28;20283;-80
2023/12/21 09:42:27;;;;;;;7.87;3.73;;;;;;;9.30;100.00;98283.25;5095499;28;20678;-79
2023/12/21 09:44:54;;;;;;;3.77;2.40;;;;;;;9.36;100.00;98276.13;5093090;28;20245;-79
2023/12/21 09:47:22;;;;;;;3.47;2.73;;;;;;;9.51;100.00;98269.16;5093351;28;20196;-79
2023/12/21 09:49:50;;;;;;;4.30;2.57;;;;;;;9.60;100.00;98257.00;5093082;28;20235;-79
2023/12/21 09:52:20;;;;;;;3.93;1.70;;;;;;;9.63;100.00;98253.81;5095413;28;20199;-79
2023/12/21 09:54:49;;;;;;;0.70;0.67;;;;;;;9.81;100.00;98236.66;5079667;28;20196;-79
2023/12/21 09:57:17;;;;;;;1.53;0.77;;;;;;;9.93;100.00;98241.91;5075814;28;20192;-79
2023/12/21 09:59:44;;;;;;;2.67;2.47;;;;;;;9.96;100.00;98220.00;5094797;28;20200;-79
2023/12/21 10:02:13;;;;;;;0.73;0.70;;;;;;;10.03;100.00;98223.31;5095819;28;20675;-79
2023/12/21 10:04:44;;;;;;;0.77;0.60;;;;;;;10.11;100.00;98229.03;5097250;28;20188;-79
2023/12/21 10:07:12;;;;;;;1.30;0.70;;;;;;;10.16;100.00;98209.56;5111258;28;20283;-79
2023/12/21 10:09:40;;;;;;;0.50;0.10;;;;;;;10.24;100.00;98198.41;5097266;28;20180;-79
2023/12/21 10:12:07;;;;;;;0.47;0.23;;;;;;;10.39;100.00;98184.38;5101190;28;20203;-79
2023/12/21 10:14:34;;;;;;;0.50;0.40;;;;;;;10.46;100.00;98182.28;5099476;28;20195;-79
2023/12/21 10:17:01;;;;;;;0.20;0.20;;;;;;;10.47;100.00;98178.53;5096742;28;20215;-79
2023/12/21 10:19:28;;;;;;;0.20;0.20;;;;;;;10.47;100.00;98162.47;5078882;28;20177;-79
2023/12/21 10:21:57;;;;;;;0.10;0.10;;;;;;;10.47;100.00;98173.19;5076436;28;20191;-79
2023/12/21 10:24:25;;;;;;;0.30;0.20;;;;;;;10.48;100.00;98164.91;5109083;28;20207;-79
2023/12/21 10:26:53;;;;;;;0.90;0.80;;;;;;;10.48;100.00;98156.88;5112498;28;20192;-79
2023/12/21 10:29:22;;;;;;;0.10;0.10;;;;;;;10.49;100.00;98150.47;5095687;28;20184;-79
2023/12/21 10:31:49;;;;;;;0.10;0.10;;;;;;;10.49;100.00;98138.94;5095503;28;20184;-79
2023/12/21 10:34:17;;;;;;;0.20;0.20;;;;;;;10.48;100.00;98135.47;5078358;28;20212;-79
2023/12/21 10:36:45;;;;;;;0.10;0.10;;;;;;;10.48;100.00;98121.25;5096482;28;20237;-79
2023/12/21 10:39:14;;;;;;;0.03;0.03;;;;;;;10.48;100.00;98123.94;5096326;28;20195;-79
2023/12/21 10:41:44;;;;;;;0.10;0.10;;;;;;;10.43;100.00;98108.63;5096246;28;20184;-79
2023/12/21 10:44:12;;;;;;;0.20;0.10;;;;;;;10.52;100.00;98106.28;5095087;28;20181;-79
2023/12/21 10:46:41;;;;;;;0.00;0.00;;;;;;;10.56;100.00;98102.84;5095143;28;20195;-79
2023/12/21 10:49:10;;;;;;;0.33;0.10;;;;;;;10.54;100.00;98085.44;5094720;28;20318;-79
2023/12/21 10:51:39;;;;;;;0.10;0.10;;;;;;;10.53;100.00;98084.63;5096094;28;20223;-78
2023/12/21 10:54:08;;;;;;;1.50;0.10;;;;;;;10.58;100.00;98071.28;5096017;28;20208;-79
2023/12/21 10:56:37;;;;;;;0.80;0.10;;;;;;;10.66;100.00;98064.63;5095904;28;20188;-79
2023/12/21 10:59:06;;;;;;;0.10;0.10;;;;;;;10.57;100.00;98048.22;5094917;28;20664;-79
2023/12/21 11:01:34;;;;;;;1.13;0.10;;;;;;;10.70;100.00;98025.53;5094930;28;20187;-79
2023/12/21 11:04:01;;;;;;;0.60;0.10;;;;;;;10.68;100.00;98018.84;5094392;28;20188;-79
2023/12/21 11:06:28;;;;;;;0.10;0.10;;;;;;;10.65;100.00;98028.19;5077888;28;20177;-79
2023/12/21 11:08:55;;;;;;;1.13;0.17;;;;;;;10.79;100.00;98010.59;5095920;28;20191;-79
2023/12/21 11:11:23;;;;;;;0.10;0.10;;;;;;;10.88;100.00;98008.22;5077944;28;20196;-79
2023/12/21 11:13:54;;;;;;;0.20;0.10;;;;;;;10.88;100.00;98013.56;5094388;28;20200;-79
2023/12/21 11:16:44;;;;;;;0.20;0.20;;;;;;;10.86;100.00;97997.78;5094263;28;20212;-79
2023/12/21 11:19:17;;;;;;;0.80;0.50;;;;;;;10.95;100.00;97996.22;5074455;28;20173;-79
2023/12/21 11:21:45;;;;;;;0.40;0.40;;;;;;;10.87;100.00;97985.97;5062856;28;20196;-79
2023/12/21 11:24:24;;;;;;;3.80;0.30;;;;;;;10.81;100.00;97986.22;5075951;28;20187;-79
2023/12/21 11:26:51;;;;;;;1.10;0.70;;;;;;;10.74;100.00;97985.63;5076034;28;20173;-79
2023/12/21 11:29:27;;;;;;;2.70;2.50;;;;;;;10.68;100.00;97971.44;5057663;28;20224;-79
2023/12/21 11:31:55;;;;;;;0.60;0.60;;;;;;;10.72;100.00;97969.84;5091109;28;20173;-79